Campbell Foss — WDC7754 — position and weather

sailwx.info

Track history (hours):
 
Tides and Currents Weather Stations Pressure Air Temp Water Temp Dewpoint Dewpoint Depression Visibility Wind Speed Wind Dir Waves Ship Positions

Campbell Foss

Owner: Foss Maritime Co., Seattle, WA. More information available from US FCC via Universal Licensing System and Coast Guard Vessel Documentation Center.

Last reported at 2017-Feb-25 22:06 UTC. Time now 2017-Feb-28 07:46 UTC.
Position N 33°46' W 118°13'.

Length 23 m; draft 16 m.

Type: Tug. MMSI: 367076360.

Date/timePositionNaut miles runAvg speedWind from/ knotsBaromVisibWave heightAir tempDewpointWater temp
2017-Feb-25 22:06N 33°46' W 118°13'3 0.3
2017-Feb-25 12:28N 33°46' W 118°16'4 0.2
2017-Feb-24 13:20N 33°45' W 118°12'1 1.0
2017-Feb-24 12:06N 33°45' W 118°13'1 0.0
2017-Feb-23 09:09N 33°45' W 118°12'1 0.0
2017-Feb-22 07:33N 33°46' W 118°13'2 0.6
2017-Feb-22 03:29N 33°45' W 118°16'0 0.1
2017-Feb-22 02:29N 33°45' W 118°16'0 0.1
2017-Feb-22 01:31N 33°45' W 118°16'1 1.4
2017-Feb-22 00:30N 33°44' W 118°15'1 1.4
2017-Feb-21 23:33N 33°43' W 118°14'2 2.4
2017-Feb-21 22:33N 33°45' W 118°13'2 0.7
2017-Feb-21 19:33N 33°45' W 118°16'4 3.4
2017-Feb-21 18:25N 33°42' W 118°17'3 2.9
2017-Feb-21 17:33N 33°44' W 118°15'1 1.1
2017-Feb-21 16:24N 33°45' W 118°16'3 0.7
2017-Feb-21 12:21N 33°44' W 118°13'  
2017-Feb-17 05:32N 33°44' W 118°17'1 1.5
2017-Feb-17 04:33N 33°46' W 118°15'2 1.3
2017-Feb-17 03:23N 33°44' W 118°17'1 0.7
2017-Feb-17 02:33N 33°45' W 118°16'1 1.0
2017-Feb-17 01:33N 33°46' W 118°15'2 2.4
2017-Feb-17 00:33N 33°44' W 118°13'2 2.2
2017-Feb-16 23:33N 33°46' W 118°13'2 2.3
2017-Feb-16 22:33N 33°46' W 118°15'2 2.0
2017-Feb-16 21:31N 33°44' W 118°16'3 3.4
2017-Feb-16 20:33N 33°44' W 118°13'4 3.8
2017-Feb-16 19:33N 33°40' W 118°11'3 3.3
2017-Feb-16 18:33N 33°44' W 118°11'0 0.5
2017-Feb-16 17:33N 33°44' W 118°11'0 0.0
2017-Feb-16 16:31N 33°44' W 118°11'0 0.0
2017-Feb-16 15:33N 33°44' W 118°11'1 0.9
2017-Feb-16 14:32N 33°44' W 118°12'0 0.2
2017-Feb-16 13:23N 33°44' W 118°12'1 1.2
2017-Feb-16 12:33N 33°45' W 118°13'1 1.1
2017-Feb-16 11:29N 33°46' W 118°13'0 0.0
2017-Feb-16 10:33N 33°46' W 118°13'0 0.0
2017-Feb-16 09:33N 33°46' W 118°13'2 2.5
2017-Feb-16 08:33N 33°46' W 118°16'1 0.9
2017-Feb-16 07:33N 33°45' W 118°16'3 2.7
2017-Feb-16 06:33N 33°44' W 118°14'3 1.4
2017-Feb-16 04:27N 33°46' W 118°13'1 0.6
2017-Feb-16 03:27N 33°46' W 118°13'2 2.5
2017-Feb-16 02:29N 33°45' W 118°16'2 1.5
2017-Feb-16 01:25N 33°44' W 118°16'4 4.6
2017-Feb-16 00:33N 33°46' W 118°13'0 0.3
2017-Feb-15 23:33N 33°46' W 118°13'0 0.0
2017-Feb-15 22:18N 33°46' W 118°13'  
Track history (hours):
 
Tides and Currents Weather Stations Pressure Air Temp Water Temp Dewpoint Dewpoint Depression Visibility Wind Speed Wind Dir Waves Ship Positions

Campbell Foss

Owner: Foss Maritime Co., Seattle, WA. More information available from US FCC via Universal Licensing System and Coast Guard Vessel Documentation Center.

Last reported at 2017-Feb-25 22:06 UTC. Time now 2017-Feb-28 07:46 UTC.
Position N 33°46' W 118°13'.

Length 23 m; draft 16 m.

Type: Tug. MMSI: 367076360.

Date/timePositionNaut miles runAvg speedWind from/ knotsBaromVisibWave heightAir tempDewpointWater temp
2017-Feb-25 22:06N 33°46' W 118°13'3 0.3
2017-Feb-25 12:28N 33°46' W 118°16'4 0.2
2017-Feb-24 13:20N 33°45' W 118°12'1 1.0
2017-Feb-24 12:06N 33°45' W 118°13'1 0.0
2017-Feb-23 09:09N 33°45' W 118°12'1 0.0
2017-Feb-22 07:33N 33°46' W 118°13'2 0.6
2017-Feb-22 03:29N 33°45' W 118°16'0 0.1
2017-Feb-22 02:29N 33°45' W 118°16'0 0.1
2017-Feb-22 01:31N 33°45' W 118°16'1 1.4
2017-Feb-22 00:30N 33°44' W 118°15'1 1.4
2017-Feb-21 23:33N 33°43' W 118°14'2 2.4
2017-Feb-21 22:33N 33°45' W 118°13'2 0.7
2017-Feb-21 19:33N 33°45' W 118°16'4 3.4
2017-Feb-21 18:25N 33°42' W 118°17'3 2.9
2017-Feb-21 17:33N 33°44' W 118°15'1 1.1
2017-Feb-21 16:24N 33°45' W 118°16'3 0.7
2017-Feb-21 12:21N 33°44' W 118°13'  
2017-Feb-17 05:32N 33°44' W 118°17'1 1.5
2017-Feb-17 04:33N 33°46' W 118°15'2 1.3
2017-Feb-17 03:23N 33°44' W 118°17'1 0.7
2017-Feb-17 02:33N 33°45' W 118°16'1 1.0
2017-Feb-17 01:33N 33°46' W 118°15'2 2.4
2017-Feb-17 00:33N 33°44' W 118°13'2 2.2
2017-Feb-16 23:33N 33°46' W 118°13'2 2.3
2017-Feb-16 22:33N 33°46' W 118°15'2 2.0
2017-Feb-16 21:31N 33°44' W 118°16'3 3.4
2017-Feb-16 20:33N 33°44' W 118°13'4 3.8
2017-Feb-16 19:33N 33°40' W 118°11'3 3.3
2017-Feb-16 18:33N 33°44' W 118°11'0 0.5
2017-Feb-16 17:33N 33°44' W 118°11'0 0.0
2017-Feb-16 16:31N 33°44' W 118°11'0 0.0
2017-Feb-16 15:33N 33°44' W 118°11'1 0.9
2017-Feb-16 14:32N 33°44' W 118°12'0 0.2
2017-Feb-16 13:23N 33°44' W 118°12'1 1.2
2017-Feb-16 12:33N 33°45' W 118°13'1 1.1
2017-Feb-16 11:29N 33°46' W 118°13'0 0.0
2017-Feb-16 10:33N 33°46' W 118°13'0 0.0
2017-Feb-16 09:33N 33°46' W 118°13'2 2.5
2017-Feb-16 08:33N 33°46' W 118°16'1 0.9
2017-Feb-16 07:33N 33°45' W 118°16'3 2.7
2017-Feb-16 06:33N 33°44' W 118°14'3 1.4
2017-Feb-16 04:27N 33°46' W 118°13'1 0.6
2017-Feb-16 03:27N 33°46' W 118°13'2 2.5
2017-Feb-16 02:29N 33°45' W 118°16'2 1.5
2017-Feb-16 01:25N 33°44' W 118°16'4 4.6
2017-Feb-16 00:33N 33°46' W 118°13'0 0.3
2017-Feb-15 23:33N 33°46' W 118°13'0 0.0
2017-Feb-15 22:18N 33°46' W 118°13'  

Dump ship's entire track history